Time;durP1;ratioP1;P1;durP2;ratioP2;P2;SDS_P1;SDS_P2;PMS_P1;PMS_P2;Temp;Humidity;BMP_temperature;BMP_pressure;BME280_temperature;BME280_humidity;BME280_pressure;Samples;Min_cycle;Max_cycle;Signal;HPM_P1;HPM_P2
2022/05/14 00:00:49;;;;;;;27.60;6.20;;;13.80;99.90;;;;;;5014041;28;20041;-74
2022/05/14 00:03:16;;;;;;;22.77;5.60;;;13.80;99.90;;;;;;5012732;28;20776;-74
2022/05/14 00:05:43;;;;;;;26.07;6.43;;;13.70;99.90;;;;;;5013865;28;20112;-75
2022/05/14 00:08:10;;;;;;;25.13;5.73;;;13.70;99.90;;;;;;5012587;28;20308;-74
2022/05/14 00:13:03;;;;;;;24.30;5.93;;;13.70;99.90;;;;;;5012329;28;20823;-74
2022/05/14 00:13:23;;;;;;;18.77;5.73;;;13.70;99.90;;;;;;5013020;28;20289;-74
2022/05/14 00:15:49;;;;;;;28.07;6.00;;;13.70;99.90;;;;;;5013784;28;20367;-74
2022/05/14 00:18:15;;;;;;;18.43;5.50;;;13.70;99.90;;;;;;5013705;28;20451;-74
2022/05/14 00:20:41;;;;;;;28.27;6.97;;;13.60;99.90;;;;;;5013563;28;20088;-75
2022/05/14 00:23:07;;;;;;;25.27;5.77;;;13.60;99.90;;;;;;5013646;28;20103;-75
2022/05/14 00:25:34;;;;;;;19.50;7.17;;;13.60;99.90;;;;;;5045630;28;20497;-74
2022/05/14 00:28:00;;;;;;;24.87;6.10;;;13.60;99.90;;;;;;5013303;28;20328;-74
2022/05/14 00:30:29;;;;;;;25.90;6.43;;;13.50;99.90;;;;;;5014059;28;20303;-74
2022/05/14 00:32:55;;;;;;;25.63;6.23;;;13.50;99.90;;;;;;5013985;28;20056;-75
2022/05/14 00:35:21;;;;;;;26.57;6.10;;;13.50;99.90;;;;;;5013240;28;20798;-74
2022/05/14 00:37:48;;;;;;;30.40;7.03;;;13.50;99.90;;;;;;5014249;28;20637;-75
2022/05/14 00:40:25;;;;;;;25.40;7.37;;;13.50;99.90;;;;;;5013413;28;20285;-74
2022/05/14 00:42:52;;;;;;;29.60;7.53;;;13.40;99.90;;;;;;5012698;28;20772;-75
2022/05/14 00:45:19;;;;;;;27.60;6.97;;;13.40;99.90;;;;;;5012304;28;20388;-75
2022/05/14 00:47:48;;;;;;;19.30;5.60;;;13.40;99.90;;;;;;4996025;28;20291;-75
2022/05/14 00:50:41;;;;;;;25.27;6.93;;;13.30;99.90;;;;;;5012224;28;20319;-74
2022/05/14 00:53:16;;;;;;;24.57;6.37;;;13.30;99.90;;;;;;5013212;28;20285;-74
2022/05/14 00:55:44;;;;;;;26.83;6.57;;;13.30;99.90;;;;;;5014124;28;20335;-74
2022/05/14 00:58:14;;;;;;;28.70;7.30;;;13.30;99.90;;;;;;5011744;28;20046;-74
2022/05/14 01:00:40;;;;;;;25.63;6.77;;;13.30;99.90;;;;;;5045226;28;20304;-74
2022/05/14 01:03:05;;;;;;;25.40;6.53;;;13.30;99.90;;;;;;5015824;28;20284;-75
2022/05/14 01:05:32;;;;;;;30.43;7.90;;;13.30;99.90;;;;;;5017568;28;20056;-74
2022/05/14 01:08:01;;;;;;;24.90;7.27;;;13.30;99.90;;;;;;5016829;28;20058;-74
2022/05/14 01:10:36;;;;;;;31.87;7.03;;;13.30;99.90;;;;;;5017068;28;20273;-75
2022/05/14 01:13:03;;;;;;;28.27;6.88;;;13.30;99.90;;;;;;5015673;28;20335;-74
2022/05/14 01:15:51;;;;;;;26.43;6.57;;;13.30;99.90;;;;;;5033138;28;20053;-74
2022/05/14 01:18:20;;;;;;;33.00;7.17;;;13.30;99.90;;;;;;5015858;28;20350;-74
2022/05/14 01:21:00;;;;;;;32.13;7.30;;;13.20;99.90;;;;;;5017474;28;20305;-74
2022/05/14 01:23:29;;;;;;;30.43;7.47;;;13.20;99.90;;;;;;5016837;28;20804;-74
2022/05/14 01:28:48;;;;;;;31.17;7.13;;;13.20;99.90;;;;;;5016864;28;20297;-74
2022/05/14 01:31:14;;;;;;;27.97;6.77;;;13.20;99.90;;;;;;5016594;28;20284;-74
2022/05/14 01:33:39;;;;;;;30.63;6.87;;;13.10;99.90;;;;;;5016245;28;20478;-74
2022/05/14 01:36:09;;;;;;;35.27;7.53;;;13.10;99.90;;;;;;5015026;28;20050;-75
2022/05/14 01:38:35;;;;;;;29.97;7.77;;;13.10;99.90;;;;;;5016958;28;20436;-74
2022/05/14 01:41:01;;;;;;;29.47;7.50;;;;;;;;;;4998829;28;20370;-75
2022/05/14 01:43:28;;;;;;;25.63;6.80;;;;;;;;;;5015421;28;20289;-74
2022/05/14 01:45:54;;;;;;;26.97;6.83;;;;;;;;;;5015349;28;20371;-75
2022/05/14 01:48:20;;;;;;;27.87;7.30;;;;;;;;;;5016209;28;20297;-75
2022/05/14 01:50:46;;;;;;;34.53;7.60;;;;;;;;;;5016470;28;20395;-75
2022/05/14 01:53:13;;;;;;;25.00;6.83;;;;;;;;;;5016143;28;20851;-75
2022/05/14 01:55:38;;;;;;;26.47;7.27;;;13.00;99.90;;;;;;5015704;28;20632;-74
2022/05/14 01:58:36;;;;;;;33.13;7.20;;;13.00;99.90;;;;;;5016165;28;20288;-75
2022/05/14 02:00:50;;;;;;;25.63;7.00;;;12.90;99.90;;;;;;5016147;28;20441;-74
2022/05/14 02:03:16;;;;;;;28.90;8.27;;;12.90;99.90;;;;;;5015350;28;20285;-74
2022/05/14 02:05:42;;;;;;;30.40;7.70;;;12.90;99.90;;;;;;5015216;28;20386;-74
2022/05/14 02:08:08;;;;;;;33.33;9.10;;;12.80;99.90;;;;;;5015140;28;20049;-74
2022/05/14 02:10:33;;;;;;;30.67;8.20;;;12.80;99.90;;;;;;5015897;28;20069;-74
2022/05/14 02:12:59;;;;;;;29.83;8.07;;;12.80;99.90;;;;;;5047778;28;20045;-75
2022/05/14 02:15:25;;;;;;;33.83;7.67;;;12.80;99.90;;;;;;5016303;28;20446;-74
2022/05/14 02:17:50;;;;;;;32.10;6.90;;;12.70;99.90;;;;;;5015797;28;20046;-74
2022/05/14 02:20:16;;;;;;;24.67;7.20;;;12.70;99.90;;;;;;5015568;28;20133;-74
2022/05/14 02:22:42;;;;;;;24.80;7.57;;;12.70;99.90;;;;;;5015684;28;20092;-74
2022/05/14 02:25:10;;;;;;;27.40;7.87;;;12.60;99.90;;;;;;5015557;28;20045;-74
2022/05/14 02:27:36;;;;;;;30.30;8.63;;;12.70;99.90;;;;;;5015158;28;20371;-74
2022/05/14 02:30:03;;;;;;;28.80;8.30;;;12.60;99.90;;;;;;5014248;28;20293;-74
2022/05/14 02:32:29;;;;;;;30.17;8.77;;;12.60;99.90;;;;;;5048368;28;20625;-74
2022/05/14 02:34:55;;;;;;;33.40;8.47;;;12.60;99.90;;;;;;5015371;28;20277;-74
2022/05/14 02:37:24;;;;;;;33.47;8.73;;;12.60;99.90;;;;;;5015352;28;20219;-75
2022/05/14 02:39:51;;;;;;;38.63;8.93;;;12.50;99.90;;;;;;5015331;28;20760;-74
2022/05/14 02:42:17;;;;;;;31.20;8.30;;;12.50;99.90;;;;;;5046703;28;20439;-74
2022/05/14 02:44:43;;;;;;;27.40;8.57;;;12.50;99.90;;;;;;5030719;28;20328;-74
2022/05/14 02:47:09;;;;;;;40.53;10.43;;;12.50;99.90;;;;;;5014711;28;20323;-74
2022/05/14 02:49:35;;;;;;;27.03;8.77;;;12.50;99.90;;;;;;5013901;28;20486;-74
2022/05/14 02:52:01;;;;;;;33.70;9.97;;;12.40;99.90;;;;;;5015043;28;20281;-74
2022/05/14 02:54:27;;;;;;;34.73;9.27;;;12.40;99.90;;;;;;5013873;28;20300;-74
2022/05/14 02:56:53;;;;;;;35.80;8.80;;;12.40;99.90;;;;;;5015603;28;20037;-74
2022/05/14 02:59:19;;;;;;;30.87;7.70;;;12.40;99.90;;;;;;5014928;28;20046;-74
2022/05/14 03:01:50;;;;;;;30.13;8.90;;;12.40;99.90;;;;;;5014867;28;20042;-74
2022/05/14 03:04:22;;;;;;;33.43;9.47;;;12.40;99.90;;;;;;5014693;28;20534;-74
2022/05/14 03:06:52;;;;;;;32.77;8.63;;;12.30;99.90;;;;;;5014902;28;20277;-74
2022/05/14 03:09:18;;;;;;;33.53;8.87;;;12.30;99.90;;;;;;5013338;28;20791;-74
2022/05/14 03:11:45;;;;;;;33.50;8.40;;;12.30;99.90;;;;;;5014433;28;20365;-74
2022/05/14 03:14:12;;;;;;;31.23;9.63;;;12.30;99.90;;;;;;5046600;28;20050;-74
2022/05/14 03:16:38;;;;;;;36.70;9.37;;;12.30;99.90;;;;;;4997331;28;20625;-74
2022/05/14 03:19:04;;;;;;;36.27;9.47;;;12.30;99.90;;;;;;5013376;28;20347;-75
2022/05/14 03:21:30;;;;;;;36.67;10.27;;;12.20;99.90;;;;;;5013308;28;20305;-74
2022/05/14 03:23:56;;;;;;;32.57;8.97;;;12.20;99.90;;;;;;5013504;28;20077;-74
2022/05/14 03:26:22;;;;;;;40.57;9.67;;;12.20;99.90;;;;;;4996845;28;20086;-74
2022/05/14 03:28:48;;;;;;;41.53;9.43;;;12.20;99.90;;;;;;5014571;28;20064;-74
2022/05/14 03:31:14;;;;;;;32.90;9.37;;;12.20;99.90;;;;;;5014340;28;20077;-74
2022/05/14 03:33:40;;;;;;;32.67;8.03;;;12.20;99.90;;;;;;5014330;28;20295;-74
2022/05/14 03:36:06;;;;;;;34.80;8.87;;;12.10;99.90;;;;;;5014267;28;20284;-74
2022/05/14 03:38:32;;;;;;;36.53;8.53;;;12.10;99.90;;;;;;5015095;28;20423;-74
2022/05/14 03:40:58;;;;;;;34.50;9.53;;;12.10;99.90;;;;;;5014241;28;20442;-74
2022/05/14 03:43:23;;;;;;;32.03;8.67;;;12.10;99.90;;;;;;5013986;28;20053;-74
2022/05/14 03:45:49;;;;;;;41.17;9.77;;;12.00;99.90;;;;;;5014938;28;20042;-74
2022/05/14 03:48:15;;;;;;;38.03;9.17;;;12.10;99.90;;;;;;5014145;28;20052;-74
2022/05/14 03:50:40;;;;;;;29.90;8.37;;;12.10;99.90;;;;;;5013011;28;20061;-74
2022/05/14 03:53:07;;;;;;;35.27;8.73;;;12.10;99.90;;;;;;5012847;28;20497;-75
2022/05/14 03:55:34;;;;;;;32.83;8.90;;;12.10;99.90;;;;;;4996916;28;20397;-74
2022/05/14 03:57:59;;;;;;;36.50;8.63;;;12.10;99.90;;;;;;5014749;28;20281;-74
2022/05/14 04:00:25;;;;;;;36.17;10.10;;;12.00;99.90;;;;;;5013826;28;20746;-74
2022/05/14 04:02:51;;;;;;;30.07;8.37;;;12.10;99.90;;;;;;5014062;28;20085;-75
2022/05/14 04:05:17;;;;;;;31.57;8.70;;;12.00;99.90;;;;;;5012907;28;20049;-74
2022/05/14 04:07:43;;;;;;;39.23;9.90;;;12.00;99.90;;;;;;5014591;28;20050;-75
2022/05/14 04:10:12;;;;;;;27.00;8.37;;;12.10;99.90;;;;;;5013740;28;20054;-75
2022/05/14 04:12:38;;;;;;;32.80;9.53;;;12.10;99.90;;;;;;5013655;28;20273;-75
2022/05/14 04:15:05;;;;;;;29.93;8.20;;;12.10;99.90;;;;;;5013712;28;20280;-75
2022/05/14 04:17:30;;;;;;;28.70;7.87;;;12.00;99.90;;;;;;5013345;28;20828;-75
2022/05/14 04:19:56;;;;;;;31.37;8.83;;;12.10;99.90;;;;;;5013680;28;20319;-74
2022/05/14 04:22:22;;;;;;;32.83;8.20;;;12.10;99.90;;;;;;5012910;28;20042;-74
2022/05/14 04:24:48;;;;;;;27.77;8.40;;;12.10;99.90;;;;;;4996199;28;20049;-74
2022/05/14 04:27:14;;;;;;;33.07;9.00;;;12.10;99.90;;;;;;5013563;28;20042;-74
2022/05/14 04:29:40;;;;;;;26.03;7.63;;;12.20;99.90;;;;;;4996489;28;20091;-74
2022/05/14 04:32:06;;;;;;;30.83;8.97;;;12.20;99.90;;;;;;5013585;28;20368;-74
2022/05/14 04:34:32;;;;;;;31.90;8.20;;;12.20;99.90;;;;;;5013768;28;20096;-75
2022/05/14 04:36:57;;;;;;;30.83;8.63;;;12.20;99.90;;;;;;5014173;28;20681;-74
2022/05/14 04:39:31;;;;;;;27.80;7.97;;;12.30;99.90;;;;;;5017611;28;20046;-74
2022/05/14 04:42:02;;;;;;;33.17;9.30;;;12.30;99.90;;;;;;5017156;28;20085;-74
2022/05/14 04:44:29;;;;;;;27.57;8.50;;;12.30;99.90;;;;;;5017587;28;20277;-74
2022/05/14 04:46:55;;;;;;;25.53;8.57;;;12.30;99.90;;;;;;5016283;28;20653;-74
2022/05/14 04:49:22;;;;;;;28.87;8.73;;;12.30;99.90;;;;;;5049979;28;20295;-74
2022/05/14 04:51:47;;;;;;;34.43;8.27;;;12.40;99.90;;;;;;5016705;28;20293;-74
2022/05/14 04:54:13;;;;;;;37.33;8.70;;;12.50;99.90;;;;;;5016166;28;20671;-75
2022/05/14 04:56:39;;;;;;;28.80;9.20;;;12.50;99.90;;;;;;5017309;28;20504;-74
2022/05/14 04:59:05;;;;;;;31.80;8.77;;;12.50;99.90;;;;;;5017260;28;20280;-74
2022/05/14 05:01:30;;;;;;;32.93;9.47;;;12.60;99.90;;;;;;5017211;28;20046;-74
2022/05/14 05:03:57;;;;;;;29.97;7.97;;;12.60;99.90;;;;;;5017162;28;20046;-74
2022/05/14 05:06:23;;;;;;;27.97;8.70;;;12.60;99.90;;;;;;5015960;28;20054;-74
2022/05/14 05:08:52;;;;;;;29.07;8.53;;;12.60;99.90;;;;;;5016071;28;20788;-74
2022/05/14 05:11:18;;;;;;;39.33;8.77;;;12.70;99.90;;;;;;5016272;28;20350;-74
2022/05/14 05:13:44;;;;;;;24.40;7.40;;;12.80;99.90;;;;;;5016991;28;20281;-74
2022/05/14 05:16:10;;;;;;;30.17;8.70;;;13.00;99.90;;;;;;5016887;28;20376;-74
2022/05/14 05:18:37;;;;;;;31.47;8.70;;;13.10;99.90;;;;;;4999732;28;20053;-74
2022/05/14 05:21:04;;;;;;;30.50;7.80;;;13.20;99.90;;;;;;5015526;28;20300;-75
2022/05/14 05:23:30;;;;;;;27.40;8.17;;;13.30;99.90;;;;;;5048902;28;20289;-74
2022/05/14 05:25:57;;;;;;;29.87;8.13;;;13.50;99.90;;;;;;5016805;28;20347;-74
2022/05/14 05:28:25;;;;;;;27.37;7.23;;;13.60;99.90;;;;;;5015187;28;20301;-74
2022/05/14 05:30:51;;;;;;;28.43;7.27;;;13.70;99.90;;;;;;5016679;28;20360;-74
2022/05/14 05:33:23;;;;;;;32.87;8.07;;;13.90;99.90;;;;;;5016532;28;20637;-75
2022/05/14 05:35:49;;;;;;;21.43;6.77;;;14.00;99.90;;;;;;5016674;28;20415;-74
2022/05/14 05:38:15;;;;;;;25.33;7.27;;;14.30;99.90;;;;;;5017041;28;20291;-75
2022/05/14 05:40:41;;;;;;;31.93;7.37;;;14.40;99.90;;;;;;5015323;28;20855;-74
2022/05/14 05:43:09;;;;;;;27.00;7.50;;;14.60;99.90;;;;;;5016108;28;20795;-74
2022/05/14 05:45:36;;;;;;;29.00;6.77;;;14.80;99.90;;;;;;5016399;28;20291;-74
2022/05/14 05:48:03;;;;;;;29.07;7.67;;;15.40;99.90;;;;;;5015825;28;20351;-75
2022/05/14 05:50:29;;;;;;;25.10;7.57;;;16.40;99.90;;;;;;5048509;28;20289;-75
2022/05/14 05:52:54;;;;;;;21.80;6.37;;;17.60;99.90;;;;;;5016239;28;20779;-75
2022/05/14 05:58:06;;;;;;;20.35;6.38;;;19.10;99.90;;;;;;5016239;28;20049;-75
2022/05/14 06:00:32;;;;;;;23.70;6.37;;;19.50;99.90;;;;;;5014899;28;20061;-75
2022/05/14 06:02:59;;;;;;;22.63;6.87;;;20.30;99.80;;;;;;5016162;28;20054;-75
2022/05/14 06:05:26;;;;;;;27.17;7.10;;;;;;;;;;5015977;28;20050;-73
2022/05/14 06:07:52;;;;;;;22.47;7.07;;;21.30;99.90;;;;;;5016648;28;20115;-74
2022/05/14 06:10:20;;;;;;;26.07;6.97;;;;;;;;;;5015934;28;20052;-73
2022/05/14 06:12:46;;;;;;;22.60;6.43;;;22.40;98.30;;;;;;5014931;28;20061;-74
2022/05/14 06:15:14;;;;;;;19.43;6.00;;;;;;;;;;5014600;28;20054;-74
2022/05/14 06:17:40;;;;;;;26.33;6.90;;;23.30;75.40;;;;;;5015568;28;20057;-75
2022/05/14 06:20:09;;;;;;;22.07;6.47;;;23.70;86.90;;;;;;5015713;28;20042;-74
2022/05/14 06:22:35;;;;;;;23.83;6.63;;;24.40;77.70;;;;;;5014310;28;20505;-74
2022/05/14 06:25:01;;;;;;;27.50;7.17;;;24.80;71.20;;;;;;5015545;28;20064;-74
2022/05/14 06:27:27;;;;;;;21.23;6.50;;;25.30;67.10;;;;;;5015542;28;20482;-74
2022/05/14 06:29:53;;;;;;;21.17;6.33;;;25.50;62.90;;;;;;5014413;28;20054;-74
2022/05/14 06:32:18;;;;;;;21.43;6.57;;;25.90;72.60;;;;;;5015125;28;20057;-75
2022/05/14 06:34:44;;;;;;;24.13;7.27;;;26.30;58.60;;;;;;5014270;28;20096;-75
2022/05/14 06:37:12;;;;;;;19.67;6.27;;;26.50;55.20;;;;;;5014487;28;20049;-75
2022/05/14 06:39:38;;;;;;;18.13;5.73;;;26.80;53.90;;;;;;5014109;28;20112;-75
2022/05/14 06:42:04;;;;;;;20.37;6.03;;;27.20;52.60;;;;;;5015573;28;20042;-75
2022/05/14 06:44:30;;;;;;;18.43;5.70;;;27.30;50.90;;;;;;5015331;28;20128;-75
2022/05/14 06:46:57;;;;;;;18.27;5.60;;;27.50;50.10;;;;;;5014012;28;20418;-75
2022/05/14 06:49:23;;;;;;;17.70;5.97;;;27.90;48.30;;;;;;5015244;28;20046;-75
2022/05/14 06:51:52;;;;;;;19.20;6.30;;;28.00;47.40;;;;;;5013953;28;20044;-75
2022/05/14 06:54:19;;;;;;;18.80;6.07;;;28.10;46.00;;;;;;5015417;28;20054;-75
2022/05/14 06:56:45;;;;;;;16.58;5.45;;;;;;;;;;5015014;28;20053;-75
2022/05/14 06:59:11;;;;;;;18.85;5.55;;;28.40;76.20;;;;;;5013685;28;20049;-74
2022/05/14 07:01:40;;;;;;;24.40;6.00;;;28.90;45.40;;;;;;5013255;28;20044;-75
2022/05/14 07:06:52;;;;;;;20.17;6.53;;;;;;;;;;5013874;28;20101;-75
2022/05/14 07:09:28;;;;;;;23.23;6.95;;;29.60;39.10;;;;;;5013838;28;20049;-75
2022/05/14 07:11:57;;;;;;;19.33;6.88;;;29.70;40.40;;;;;;5014850;28;20041;-74
2022/05/14 07:14:25;;;;;;;20.70;6.82;;;29.70;41.30;;;;;;5013401;28;20119;-75
2022/05/14 07:16:52;;;;;;;18.13;6.40;;;29.90;41.10;;;;;;5014666;28;20046;-77
2022/05/14 07:19:17;;;;;;;18.88;6.55;;;30.10;40.10;;;;;;4997514;28;20188;-77
2022/05/14 07:21:46;;;;;;;19.05;6.32;;;30.20;64.40;;;;;;5013339;28;20132;-77
2022/05/14 07:24:26;;;;;;;18.95;6.22;;;30.50;39.00;;;;;;5013542;28;20054;-77
2022/05/14 07:26:56;;;;;;;18.50;6.93;;;30.70;36.40;;;;;;5015282;28;20111;-77
2022/05/14 07:29:24;;;;;;;15.95;5.82;;;30.60;38.20;;;;;;4996936;28;20153;-76
2022/05/14 07:31:51;;;;;;;20.27;6.50;;;30.50;38.30;;;;;;5013438;28;20053;-75
2022/05/14 07:34:17;;;;;;;17.80;6.25;;;;;;;;;;5014422;28;20046;-75
2022/05/14 07:36:46;;;;;;;15.82;5.63;;;30.90;35.10;;;;;;5014625;28;20037;-75
2022/05/14 07:39:13;;;;;;;17.50;6.25;;;31.00;37.20;;;;;;5014317;28;20073;-75
2022/05/14 07:41:42;;;;;;;14.75;6.18;;;31.20;37.20;;;;;;5014228;28;20046;-76
2022/05/14 07:44:10;;;;;;;20.67;6.35;;;31.20;36.50;;;;;;5014911;28;20057;-75
2022/05/14 07:46:37;;;;;;;17.58;6.53;;;31.00;36.40;;;;;;5014157;28;20389;-74
2022/05/14 07:49:06;;;;;;;16.02;5.93;;;;;;;;;;5014940;28;20045;-74
2022/05/14 07:51:32;;;;;;;17.20;6.10;;;;;;;;;;5012891;28;20060;-74
2022/05/14 07:53:59;;;;;;;19.15;6.63;;;;;;;;;;5013127;28;20050;-73
2022/05/14 07:56:25;;;;;;;21.10;6.70;;;31.80;33.80;;;;;;4997005;28;20061;-72
2022/05/14 07:58:50;;;;;;;17.08;5.82;;;31.90;60.30;;;;;;5014132;28;20045;-73
2022/05/14 08:01:16;;;;;;;19.55;6.20;;;31.80;60.50;;;;;;5013988;28;20058;-73
2022/05/14 08:03:43;;;;;;;14.32;5.15;;;31.70;59.80;;;;;;5013576;28;20509;-74
2022/05/14 08:06:10;;;;;;;14.90;5.78;;;31.60;57.10;;;;;;5013891;28;20487;-72
2022/05/14 08:08:36;;;;;;;15.15;6.65;;;31.40;55.60;;;;;;5013807;28;20064;-73
2022/05/14 08:11:02;;;;;;;21.23;6.80;;;31.20;55.50;;;;;;5045369;28;20053;-73
2022/05/14 08:13:29;;;;;;;14.30;6.18;;;31.20;51.40;;;;;;5013852;28;20123;-74
2022/05/14 08:15:55;;;;;;;16.48;6.00;;;30.90;35.50;;;;;;5013774;28;20046;-75
2022/05/14 08:18:21;;;;;;;17.98;7.10;;;30.90;35.20;;;;;;5013531;28;20053;-74
2022/05/14 08:20:50;;;;;;;17.67;6.65;;;30.60;35.70;;;;;;5014333;28;20038;-75
2022/05/14 08:26:01;;;;;;;16.55;7.30;;;30.10;36.10;;;;;;5013671;28;20141;-75
2022/05/14 08:28:27;;;;;;;17.85;6.50;;;;;;;;;;5013613;28;20136;-74
2022/05/14 08:30:53;;;;;;;15.63;6.07;;;28.30;37.10;;;;;;5012947;28;20387;-74
2022/05/14 08:33:19;;;;;;;15.52;6.03;;;27.10;73.40;;;;;;5045799;28;20076;-71
2022/05/14 08:35:46;;;;;;;16.13;5.93;;;;;;;;;;5013593;28;20477;-74
2022/05/14 08:38:13;;;;;;;18.38;6.30;;;;;;;;;;5012553;28;20490;-74
2022/05/14 08:40:43;;;;;;;22.88;6.53;;;;;;;;;;5013396;28;20041;-75
2022/05/14 08:43:14;;;;;;;19.58;7.20;;;26.20;75.80;;;;;;5013725;28;20065;-74
2022/05/14 08:45:39;;;;;;;19.30;6.45;;;25.80;54.90;;;;;;5013306;28;20069;-75
2022/05/14 08:48:14;;;;;;;19.30;6.65;;;25.60;41.80;;;;;;5012252;28;20481;-73
2022/05/14 08:50:41;;;;;;;17.48;6.47;;;25.30;42.70;;;;;;5012633;28;20054;-74
2022/05/14 08:53:16;;;;;;;20.98;6.50;;;25.20;42.80;;;;;;5013466;28;20046;-73
2022/05/14 08:56:12;;;;;;;20.60;6.22;;;25.00;43.50;;;;;;5013937;28;20054;-72
2022/05/14 08:58:49;;;;;;;20.45;6.40;;;;;;;;;;5004384;28;20112;-73
2022/05/14 09:01:22;;;;;;;19.05;5.88;;;24.40;84.10;;;;;;5013901;28;20049;-73
2022/05/14 09:03:48;;;;;;;21.43;7.10;;;24.40;44.00;;;;;;5012723;28;20068;-74
2022/05/14 09:06:14;;;;;;;18.17;5.60;;;;;;;;;;5013367;28;20284;-73
2022/05/14 09:08:40;;;;;;;21.53;6.63;;;23.90;44.90;;;;;;5013113;28;20141;-73
2022/05/14 09:11:11;;;;;;;18.77;5.63;;;;;;;;;;5013115;28;20121;-72
2022/05/14 09:13:45;;;;;;;23.70;6.60;;;23.30;45.90;;;;;;5013883;28;20049;-74
2022/05/14 09:16:26;;;;;;;;;;;23.30;46.40;;;;;;5013867;28;20077;-73
2022/05/14 09:18:53;;;;;;;17.50;5.73;;;23.00;48.60;;;;;;5013153;28;19925;-73
2022/05/14 09:21:26;;;;;;;18.73;5.73;;;23.00;47.70;;;;;;5013022;28;20045;-71
2022/05/14 09:23:58;;;;;;;19.17;6.18;;;23.10;47.50;;;;;;5014031;28;20088;-72
2022/05/14 09:26:37;;;;;;;19.40;6.23;;;23.10;47.50;;;;;;5016788;28;20057;-72
2022/05/14 09:29:31;;;;;;;21.13;6.47;;;23.00;48.00;;;;;;5015648;28;20216;-71
2022/05/14 09:32:00;;;;;;;22.17;6.70;;;22.90;48.20;;;;;;5017234;28;20050;-73
2022/05/14 09:34:26;;;;;;;27.73;7.63;;;;;;;;;;5016496;28;20063;-73
2022/05/14 09:36:53;;;;;;;20.67;5.80;;;;;;;;;;5015357;28;20045;-73
2022/05/14 09:39:23;;;;;;;23.37;6.23;;;22.30;49.50;;;;;;5017127;28;20088;-73
2022/05/14 09:41:56;;;;;;;22.30;6.30;;;22.30;50.10;;;;;;5016963;28;20041;-73
2022/05/14 09:44:44;;;;;;;24.37;6.07;;;22.20;50.90;;;;;;5016484;28;20050;-73
2022/05/14 09:47:10;;;;;;;19.83;6.87;;;;;;;;;;5016246;28;20076;-72
2022/05/14 09:49:39;;;;;;;21.23;6.30;;;;;;;;;;5016427;28;20137;-72
2022/05/14 09:52:07;;;;;;;24.13;6.17;;;;;;;;;;5016378;28;20050;-73
2022/05/14 09:54:41;;;;;;;22.40;6.33;;;;;;;;;;5016645;28;20093;-74
2022/05/14 09:57:17;;;;;;;20.67;5.90;;;;;;;;;;5016286;28;20056;-74
2022/05/14 10:00:02;;;;;;;18.80;5.93;;;;;;;;;;5015989;28;20050;-75
2022/05/14 10:02:28;;;;;;;17.27;5.73;;;;;;;;;;4999006;28;20053;-74
2022/05/14 10:05:15;;;;;;;20.80;5.97;;;21.80;50.50;;;;;;5015121;28;20057;-73
2022/05/14 10:08:04;;;;;;;20.87;6.00;;;21.90;51.20;;;;;;5016022;28;20555;-73
2022/05/14 10:10:36;;;;;;;20.17;6.17;;;21.80;51.70;;;;;;5016077;28;20129;-74
2022/05/14 10:13:22;;;;;;;21.73;6.93;;;21.70;51.90;;;;;;5015906;28;20054;-74
2022/05/14 10:16:11;;;;;;;20.93;6.63;;;21.60;52.30;;;;;;5015914;28;20050;-74
2022/05/14 10:18:59;;;;;;;21.00;6.57;;;21.50;52.90;;;;;;5015690;28;20100;-80
2022/05/14 10:21:33;;;;;;;21.60;6.73;;;21.30;52.80;;;;;;5015677;28;20056;-80
2022/05/14 10:27:29;;;;;;;21.20;6.00;;;21.20;52.50;;;;;;5015646;28;19928;-75
2022/05/14 10:30:05;;;;;;;18.80;6.33;;;21.30;52.20;;;;;;5048041;28;20062;-75
2022/05/14 10:32:32;;;;;;;22.67;6.20;;;21.30;51.30;;;;;;5014607;28;20128;-74
2022/05/14 10:35:18;;;;;;;19.70;6.17;;;21.40;51.60;;;;;;5014161;28;20045;-73
2022/05/14 10:37:51;;;;;;;20.97;6.23;;;21.40;52.90;;;;;;5015558;28;20058;-74
2022/05/14 10:40:37;;;;;;;20.37;7.03;;;21.50;52.90;;;;;;5014801;28;20089;-77
2022/05/14 10:43:35;;;;;;;23.57;6.20;;;21.60;52.60;;;;;;5015643;28;20045;-74
2022/05/14 10:46:07;;;;;;;22.70;5.83;;;21.60;52.50;;;;;;5015905;28;20046;-72
2022/05/14 10:48:35;;;;;;;21.43;5.53;;;21.60;52.90;;;;;;5047758;28;20054;-72
2022/05/14 10:51:07;;;;;;;20.87;6.07;;;21.70;53.10;;;;;;5013954;28;20398;-73
2022/05/14 10:53:33;;;;;;;20.33;6.23;;;21.70;52.30;;;;;;5014053;28;20045;-72
2022/05/14 10:56:18;;;;;;;23.77;6.67;;;21.60;52.50;;;;;;5015190;28;20065;-73
2022/05/14 10:59:04;;;;;;;26.05;7.07;;;21.50;52.60;;;;;;5015916;28;20050;-72
2022/05/14 11:01:47;;;;;;;23.20;6.13;;;21.50;52.50;;;;;;5013939;28;20096;-73
2022/05/14 11:04:27;;;;;;;21.03;6.63;;;21.40;52.20;;;;;;5015039;28;20046;-73
2022/05/14 11:07:04;;;;;;;25.23;6.80;;;21.40;52.20;;;;;;5047985;28;20064;-73
2022/05/14 11:09:41;;;;;;;25.20;6.27;;;;;;;;;;5047062;28;20049;-73
2022/05/14 11:12:19;;;;;;;21.60;7.00;;;21.40;52.20;;;;;;5014391;28;20135;-73
2022/05/14 11:14:49;;;;;;;20.83;6.43;;;21.30;52.90;;;;;;5013864;28;20103;-71
2022/05/14 11:17:26;;;;;;;20.93;7.00;;;21.30;53.20;;;;;;5013601;28;20046;-74
2022/05/14 11:20:02;;;;;;;24.67;6.50;;;21.20;53.70;;;;;;5013530;28;20069;-74
2022/05/14 11:23:02;;;;;;;21.30;6.17;;;21.20;53.30;;;;;;5015253;28;20057;-72
2022/05/14 11:25:28;;;;;;;22.37;7.00;;;21.20;53.50;;;;;;5014905;28;20049;-73
2022/05/14 11:28:03;;;;;;;19.20;6.10;;;21.20;52.80;;;;;;5014395;28;20112;-74
2022/05/14 11:30:51;;;;;;;25.53;7.17;;;21.20;52.70;;;;;;5047521;28;20057;-75
2022/05/14 11:33:26;;;;;;;22.30;7.00;;;21.20;52.90;;;;;;5014331;28;20061;-74
2022/05/14 11:35:53;;;;;;;17.90;6.10;;;21.10;53.10;;;;;;5014432;28;20054;-74
2022/05/14 11:38:25;;;;;;;21.67;6.17;;;21.00;53.00;;;;;;5014400;28;20054;-77
2022/05/14 11:41:07;;;;;;;23.63;7.20;;;20.90;53.10;;;;;;5014388;28;20386;-73
2022/05/14 11:43:43;;;;;;;19.90;6.13;;;20.90;53.10;;;;;;5014384;28;20072;-71
2022/05/14 11:46:42;;;;;;;23.00;6.67;;;20.90;53.60;;;;;;5013913;28;20049;-72
2022/05/14 11:49:26;;;;;;;23.27;6.37;;;20.80;53.30;;;;;;4997638;28;20099;-74
2022/05/14 11:52:10;;;;;;;22.37;6.87;;;20.80;53.40;;;;;;5013552;28;20050;-73
2022/05/14 11:54:48;;;;;;;22.98;6.75;;;20.70;53.90;;;;;;5014225;28;20100;-72
2022/05/14 11:57:24;;;;;;;17.40;5.50;;;20.70;54.00;;;;;;5014860;28;20385;-72
2022/05/14 12:00:15;;;;;;;23.10;6.50;;;20.70;53.80;;;;;;5014874;28;20053;-73
2022/05/14 12:02:40;;;;;;;21.00;6.57;;;20.70;54.10;;;;;;5013534;28;20629;-73
2022/05/14 12:05:12;;;;;;;21.10;6.70;;;20.60;54.20;;;;;;5012976;28;20085;-74
2022/05/14 12:07:41;;;;;;;25.53;6.60;;;20.60;54.40;;;;;;4997072;28;20050;-73
2022/05/14 12:10:13;;;;;;;23.20;7.07;;;20.70;54.50;;;;;;5013843;28;20054;-73
2022/05/14 12:13:13;;;;;;;21.33;6.60;;;20.70;54.50;;;;;;5013995;28;20092;-78
2022/05/14 12:15:47;;;;;;;20.87;6.37;;;20.80;55.10;;;;;;5013258;28;20054;-73
2022/05/14 12:18:14;;;;;;;20.20;6.10;;;20.80;53.90;;;;;;5012862;28;20048;-75
2022/05/14 12:20:43;;;;;;;20.50;6.57;;;20.70;54.30;;;;;;5014523;28;20112;-73
2022/05/14 12:23:11;;;;;;;22.57;6.10;;;20.70;54.80;;;;;;5012831;28;20050;-74
2022/05/14 12:25:46;;;;;;;21.03;6.13;;;20.80;55.60;;;;;;5014258;28;20049;-76
2022/05/14 12:28:32;;;;;;;;;;;20.80;54.80;;;;;;5013977;28;20054;-78
2022/05/14 12:33:52;;;;;;;21.77;6.33;;;20.60;55.30;;;;;;5014214;28;19976;-77
2022/05/14 12:36:18;;;;;;;21.33;6.27;;;20.60;54.60;;;;;;5012996;28;20549;-76
2022/05/14 12:38:44;;;;;;;21.37;6.30;;;20.50;54.00;;;;;;5045640;28;20505;-84
2022/05/14 12:41:21;;;;;;;19.73;5.80;;;20.60;53.40;;;;;;5013637;28;20085;-75
2022/05/14 12:43:48;;;;;;;25.17;7.40;;;20.70;53.70;;;;;;5014427;28;20050;-75
2022/05/14 12:46:14;;;;;;;26.07;6.77;;;20.70;53.20;;;;;;5013132;28;20053;-75
2022/05/14 12:48:58;;;;;;;24.83;6.10;;;20.80;53.30;;;;;;5029171;28;20045;-75
2022/05/14 12:51:25;;;;;;;17.57;5.50;;;20.80;53.40;;;;;;5012881;28;20126;-75
2022/05/14 12:53:54;;;;;;;21.23;6.77;;;20.70;53.20;;;;;;5013927;28;20045;-76
2022/05/14 12:56:22;;;;;;;18.77;5.50;;;20.60;53.20;;;;;;5014218;28;20104;-75
2022/05/14 12:58:49;;;;;;;23.73;6.47;;;20.60;53.70;;;;;;5015427;28;20046;-73
2022/05/14 13:01:17;;;;;;;21.47;6.30;;;20.70;54.10;;;;;;5015937;28;20050;-75
2022/05/14 13:03:59;;;;;;;19.07;6.10;;;20.70;53.40;;;;;;5017608;28;20093;-75
2022/05/14 13:06:34;;;;;;;20.43;6.70;;;20.80;53.50;;;;;;5017069;28;20440;-76
2022/05/14 13:09:05;;;;;;;23.15;6.57;;;20.90;53.50;;;;;;5018047;28;20382;-76
2022/05/14 13:11:34;;;;;;;25.10;5.87;;;20.90;53.20;;;;;;5017684;28;20121;-75
2022/05/14 13:14:13;;;;;;;19.10;5.50;;;20.90;53.00;;;;;;5017113;28;20046;-82
2022/05/14 13:16:39;;;;;;;20.40;6.53;;;20.80;53.30;;;;;;5017948;28;20046;-77
2022/05/14 13:19:22;;;;;;;20.73;6.60;;;20.80;53.30;;;;;;5016704;28;20119;-77